Time;durP1;ratioP1;P1;durP2;ratioP2;P2;SDS_P1;SDS_P2;PMS_P1;PMS_P2;Temp;Humidity;BMP_temperature;BMP_pressure;BME280_temperature;BME280_humidity;BME280_pressure;Samples;Min_cycle;Max_cycle;Signal;HPM_P1;HPM_P2
2021/06/10 00:00:57;;;;;;;7.05;6.35;;;21.20;99.90;;;;;;5034483;28;20168;-67
2021/06/10 00:03:23;;;;;;;8.23;6.65;;;21.20;99.90;;;;;;5052826;28;20515;-66
2021/06/10 00:05:49;;;;;;;6.60;5.95;;;21.00;99.90;;;;;;5052738;28;20116;-66
2021/06/10 00:08:15;;;;;;;6.30;5.75;;;21.00;99.90;;;;;;5051831;28;20151;-66
2021/06/10 00:10:42;;;;;;;8.52;6.47;;;21.10;99.90;;;;;;5052753;28;20052;-66
2021/06/10 00:13:07;;;;;;;7.00;6.40;;;21.10;99.90;;;;;;5034043;28;20025;-67
2021/06/10 00:15:35;;;;;;;7.07;6.38;;;21.00;99.90;;;;;;5052793;28;20090;-66
2021/06/10 00:18:02;;;;;;;12.00;7.50;;;21.00;99.90;;;;;;5034092;28;20039;-67
2021/06/10 00:20:31;;;;;;;7.50;6.43;;;21.00;99.90;;;;;;5052416;28;20041;-66
2021/06/10 00:22:57;;;;;;;6.60;5.90;;;21.00;99.90;;;;;;5052097;28;20408;-68
2021/06/10 00:25:24;;;;;;;7.30;6.70;;;21.10;99.90;;;;;;5052470;28;20016;-67
2021/06/10 00:27:50;;;;;;;6.47;5.68;;;21.00;99.90;;;;;;5052144;28;20451;-67
2021/06/10 00:30:17;;;;;;;7.57;5.80;;;21.00;99.90;;;;;;5051765;28;20080;-67
2021/06/10 00:32:44;;;;;;;10.98;6.22;;;21.00;99.90;;;;;;5052225;28;20040;-67
2021/06/10 00:35:12;;;;;;;6.18;5.57;;;21.10;99.90;;;;;;5051326;28;20099;-67
2021/06/10 00:37:38;;;;;;;6.70;5.75;;;21.10;99.90;;;;;;5052279;28;20522;-66
2021/06/10 00:40:06;;;;;;;7.10;6.28;;;21.00;99.90;;;;;;5033350;28;20327;-66
2021/06/10 00:42:32;;;;;;;6.22;5.63;;;21.10;99.90;;;;;;5051730;28;20033;-67
2021/06/10 00:44:58;;;;;;;6.95;6.13;;;21.10;99.90;;;;;;5051641;28;20039;-67
2021/06/10 00:47:24;;;;;;;9.35;5.82;;;21.00;99.90;;;;;;5052366;28;20374;-67
2021/06/10 00:49:50;;;;;;;7.40;5.95;;;21.00;99.90;;;;;;5033459;28;20451;-68
2021/06/10 00:52:15;;;;;;;6.45;5.60;;;20.90;99.90;;;;;;5050677;28;20132;-67
2021/06/10 00:54:41;;;;;;;6.45;5.70;;;21.00;99.90;;;;;;5033808;28;20025;-67
2021/06/10 00:57:07;;;;;;;5.60;5.03;;;20.90;99.90;;;;;;5032997;28;20450;-67
2021/06/10 00:59:33;;;;;;;7.13;5.63;;;20.70;99.90;;;;;;5033587;28;20458;-67
2021/06/10 01:01:59;;;;;;;7.15;5.25;;;20.80;99.90;;;;;;5051802;28;20076;-66
2021/06/10 01:04:26;;;;;;;7.72;6.95;;;20.80;99.90;;;;;;5051808;28;20029;-67
2021/06/10 01:07:01;;;;;;;9.38;5.80;;;20.80;99.90;;;;;;5051978;28;20070;-67
2021/06/10 01:09:43;;;;;;;6.40;5.75;;;20.80;99.90;;;;;;5033392;28;20017;-66
2021/06/10 01:12:26;;;;;;;6.28;5.63;;;20.80;99.90;;;;;;5032926;28;20135;-66
2021/06/10 01:15:01;;;;;;;6.93;5.65;;;20.70;99.90;;;;;;5033510;28;20079;-66
2021/06/10 01:17:30;;;;;;;11.60;5.82;;;20.70;99.90;;;;;;5033564;28;20025;-66
2021/06/10 01:20:04;;;;;;;6.50;5.90;;;20.70;99.90;;;;;;5033361;28;20037;-67
2021/06/10 01:22:59;;;;;;;5.82;5.32;;;20.70;99.90;;;;;;5051430;28;20032;-66
2021/06/10 01:25:24;;;;;;;6.93;6.22;;;20.60;99.90;;;;;;5032742;28;20035;-67
2021/06/10 01:28:08;;;;;;;11.90;5.70;;;20.60;99.90;;;;;;5033236;28;20021;-66
2021/06/10 01:30:39;;;;;;;7.70;6.30;;;20.50;99.90;;;;;;5051491;28;20033;-66
2021/06/10 01:33:09;;;;;;;8.57;5.97;;;20.50;99.90;;;;;;5050641;28;20032;-67
2021/06/10 01:35:41;;;;;;;7.03;6.20;;;20.40;99.90;;;;;;5051228;28;20054;-66
2021/06/10 01:38:08;;;;;;;6.65;6.05;;;20.50;99.90;;;;;;5050259;28;20461;-66
2021/06/10 01:40:33;;;;;;;8.38;5.30;;;20.40;99.90;;;;;;5050662;28;20040;-66
2021/06/10 01:43:00;;;;;;;9.20;5.82;;;20.30;99.90;;;;;;5051003;28;20187;-66
2021/06/10 01:45:26;;;;;;;6.57;5.97;;;20.20;99.90;;;;;;5050389;28;20043;-65
2021/06/10 01:47:53;;;;;;;6.47;5.50;;;20.20;99.90;;;;;;5050889;28;20029;-66
2021/06/10 01:50:22;;;;;;;5.75;5.20;;;20.30;99.90;;;;;;5050250;28;20064;-66
2021/06/10 01:52:49;;;;;;;8.65;5.55;;;20.40;99.90;;;;;;5032509;28;20112;-65
2021/06/10 01:55:17;;;;;;;7.20;6.00;;;20.40;99.90;;;;;;5032157;28;20025;-65
2021/06/10 01:57:44;;;;;;;7.80;6.32;;;20.30;99.90;;;;;;5050615;28;20017;-65
2021/06/10 02:00:13;;;;;;;6.63;6.03;;;20.20;99.90;;;;;;5032107;28;20033;-65
2021/06/10 02:02:39;;;;;;;6.68;5.97;;;20.30;99.90;;;;;;5031753;28;20025;-65
2021/06/10 02:05:07;;;;;;;13.75;6.20;;;20.20;99.90;;;;;;5031952;28;20025;-65
2021/06/10 02:07:41;;;;;;;7.13;5.78;;;20.30;99.90;;;;;;5032680;28;20443;-65
2021/06/10 02:10:11;;;;;;;6.47;5.88;;;20.30;99.90;;;;;;5050223;28;20047;-65
2021/06/10 02:12:37;;;;;;;8.57;6.00;;;20.40;99.90;;;;;;5050586;28;20029;-65
2021/06/10 02:15:06;;;;;;;8.13;5.47;;;20.30;99.90;;;;;;5032570;28;20036;-66
2021/06/10 02:17:32;;;;;;;8.65;6.03;;;20.30;99.90;;;;;;5032710;28;20378;-65
2021/06/10 02:19:58;;;;;;;7.05;6.35;;;20.30;99.90;;;;;;5050120;28;20037;-65
2021/06/10 02:22:23;;;;;;;7.88;6.78;;;20.20;99.90;;;;;;5049881;28;20403;-66
2021/06/10 02:24:50;;;;;;;7.97;6.95;;;20.10;99.90;;;;;;5032259;28;20052;-65
2021/06/10 02:27:16;;;;;;;6.60;5.80;;;20.20;99.90;;;;;;5031762;28;20029;-65
2021/06/10 02:29:43;;;;;;;7.93;7.13;;;20.20;99.90;;;;;;5050501;28;20032;-66
2021/06/10 02:32:09;;;;;;;7.50;6.80;;;20.10;99.90;;;;;;5050030;28;20062;-66
2021/06/10 02:34:35;;;;;;;7.85;7.00;;;20.10;99.90;;;;;;5050077;28;20119;-65
2021/06/10 02:37:02;;;;;;;8.15;6.95;;;20.00;99.90;;;;;;5032271;28;20417;-65
2021/06/10 02:39:29;;;;;;;6.95;6.25;;;20.10;99.90;;;;;;5049110;28;20476;-66
2021/06/10 02:41:56;;;;;;;7.75;6.95;;;20.10;99.90;;;;;;5050423;28;20053;-65
2021/06/10 02:44:26;;;;;;;8.13;6.60;;;20.10;99.90;;;;;;5049264;28;20025;-65
2021/06/10 02:46:53;;;;;;;7.88;7.13;;;20.10;99.90;;;;;;5050327;28;20028;-65
2021/06/10 02:49:20;;;;;;;11.43;8.38;;;20.10;99.90;;;;;;5049563;28;20029;-65
2021/06/10 02:51:46;;;;;;;10.02;8.52;;;20.00;99.90;;;;;;5049961;28;20068;-66
2021/06/10 02:54:16;;;;;;;9.68;7.03;;;19.90;99.90;;;;;;5049601;28;20430;-66
2021/06/10 02:56:42;;;;;;;9.85;6.75;;;19.90;99.90;;;;;;5050195;28;20494;-65
2021/06/10 02:59:10;;;;;;;11.07;7.07;;;19.90;99.90;;;;;;5031539;28;20039;-66
2021/06/10 03:01:40;;;;;;;8.55;7.18;;;20.00;99.90;;;;;;5049735;28;20408;-65
2021/06/10 03:04:08;;;;;;;8.27;7.47;;;20.00;99.90;;;;;;5032072;28;20378;-65
2021/06/10 03:06:35;;;;;;;8.98;7.65;;;20.00;99.90;;;;;;5050136;28;20055;-65
2021/06/10 03:09:01;;;;;;;11.23;7.63;;;20.00;99.90;;;;;;5050155;28;20107;-65
2021/06/10 03:11:28;;;;;;;7.78;7.07;;;19.90;99.90;;;;;;5031197;28;20059;-68
2021/06/10 03:13:55;;;;;;;7.57;6.78;;;19.90;99.90;;;;;;5033215;28;20115;-66
2021/06/10 03:16:21;;;;;;;9.25;8.27;;;19.90;99.90;;;;;;5052425;28;20060;-66
2021/06/10 03:18:47;;;;;;;9.23;7.60;;;20.00;99.90;;;;;;5044202;28;20501;-66
2021/06/10 03:21:13;;;;;;;8.32;6.50;;;20.00;99.90;;;;;;5055591;28;20071;-66
2021/06/10 03:23:40;;;;;;;8.23;7.05;;;20.00;99.90;;;;;;5073761;28;20374;-66
2021/06/10 03:26:07;;;;;;;7.55;6.80;;;20.00;99.90;;;;;;5055718;28;20385;-66
2021/06/10 03:28:33;;;;;;;9.85;6.53;;;20.00;99.90;;;;;;5055151;28;20163;-66
2021/06/10 03:30:59;;;;;;;8.40;7.55;;;20.00;99.90;;;;;;5055673;28;20040;-67
2021/06/10 03:33:25;;;;;;;7.60;6.70;;;20.00;99.90;;;;;;5055052;28;20030;-67
2021/06/10 03:35:53;;;;;;;9.02;6.85;;;20.00;99.90;;;;;;5073566;28;20111;-67
2021/06/10 03:38:20;;;;;;;7.70;6.93;;;19.90;99.90;;;;;;5054811;28;20107;-66
2021/06/10 03:40:48;;;;;;;7.88;6.82;;;20.00;99.90;;;;;;5072991;28;20036;-66
2021/06/10 03:43:16;;;;;;;7.50;6.07;;;20.00;99.90;;;;;;5072819;28;20123;-67
2021/06/10 03:45:41;;;;;;;6.78;6.10;;;20.00;99.90;;;;;;5073049;28;20028;-66
2021/06/10 03:48:10;;;;;;;6.85;6.25;;;20.00;99.90;;;;;;5055401;28;20027;-66
2021/06/10 03:50:37;;;;;;;9.50;7.13;;;20.00;99.90;;;;;;5073703;28;20037;-68
2021/06/10 03:53:04;;;;;;;7.10;6.47;;;19.90;99.90;;;;;;5055805;28;20048;-66
2021/06/10 03:55:29;;;;;;;7.78;7.03;;;19.80;99.90;;;;;;5054665;28;20217;-66
2021/06/10 03:57:55;;;;;;;7.43;6.72;;;19.70;99.90;;;;;;5073036;28;20030;-66
2021/06/10 04:00:21;;;;;;;7.55;6.18;;;19.80;99.90;;;;;;5054656;28;20465;-66
2021/06/10 04:02:46;;;;;;;7.60;6.88;;;19.80;99.90;;;;;;5055232;28;20024;-66
2021/06/10 04:05:12;;;;;;;8.77;6.88;;;19.70;99.90;;;;;;5072330;28;20103;-67
2021/06/10 04:07:38;;;;;;;8.30;7.25;;;19.70;99.90;;;;;;5055427;28;20462;-67
2021/06/10 04:10:05;;;;;;;7.10;5.80;;;19.70;99.90;;;;;;5054912;28;20178;-66
2021/06/10 04:12:31;;;;;;;8.40;7.28;;;19.80;99.90;;;;;;5054397;28;20597;-67
2021/06/10 04:14:56;;;;;;;7.65;5.90;;;19.80;99.90;;;;;;5054915;28;20021;-66
2021/06/10 04:17:23;;;;;;;8.98;7.30;;;19.80;99.90;;;;;;5072551;28;20024;-66
2021/06/10 04:19:48;;;;;;;8.75;7.07;;;19.70;99.90;;;;;;5054841;28;20032;-66
2021/06/10 04:22:14;;;;;;;7.80;7.10;;;19.70;99.90;;;;;;5054130;28;20077;-67
2021/06/10 04:24:40;;;;;;;7.53;6.82;;;19.90;99.90;;;;;;5054366;28;20024;-66
2021/06/10 04:27:06;;;;;;;8.95;6.28;;;20.00;99.90;;;;;;5072482;28;20024;-66
2021/06/10 04:29:32;;;;;;;7.47;6.68;;;20.00;99.90;;;;;;5054006;28;20337;-66
2021/06/10 04:31:58;;;;;;;8.80;6.75;;;20.20;99.90;;;;;;5054449;28;20020;-66
2021/06/10 04:34:23;;;;;;;9.05;7.35;;;20.20;99.90;;;;;;5053895;28;20036;-66
2021/06/10 04:36:49;;;;;;;14.23;9.30;;;20.10;99.90;;;;;;5054521;28;20024;-65
2021/06/10 04:39:15;;;;;;;12.52;7.93;;;20.20;99.90;;;;;;5072285;28;20556;-66
2021/06/10 04:41:40;;;;;;;12.45;7.32;;;20.20;99.90;;;;;;5072409;28;20085;-66
2021/06/10 04:44:06;;;;;;;11.07;7.70;;;20.20;99.90;;;;;;5072503;28;20128;-66
2021/06/10 04:46:33;;;;;;;14.32;8.23;;;20.30;99.90;;;;;;5053910;28;20386;-66
2021/06/10 04:48:59;;;;;;;10.48;7.43;;;20.20;99.90;;;;;;5054171;28;20024;-66
2021/06/10 04:51:26;;;;;;;10.43;7.90;;;20.20;99.90;;;;;;5071210;28;20351;-65
2021/06/10 04:53:53;;;;;;;18.98;10.00;;;20.20;99.90;;;;;;5071983;28;20024;-65
2021/06/10 04:56:20;;;;;;;11.13;7.50;;;20.10;99.90;;;;;;5053324;28;20055;-65
2021/06/10 04:58:46;;;;;;;8.25;7.35;;;20.20;99.90;;;;;;5072007;28;20024;-66
2021/06/10 05:01:12;;;;;;;11.07;7.22;;;20.20;99.90;;;;;;5053874;28;20028;-66
2021/06/10 05:03:37;;;;;;;8.57;7.15;;;20.30;99.90;;;;;;5071340;28;20119;-66
2021/06/10 05:06:03;;;;;;;11.15;7.10;;;20.40;99.90;;;;;;5053852;28;20454;-65
2021/06/10 05:08:29;;;;;;;12.38;7.28;;;20.50;99.90;;;;;;5053160;28;20029;-66
2021/06/10 05:10:54;;;;;;;7.90;7.10;;;20.60;99.90;;;;;;5071704;28;20040;-66
2021/06/10 05:13:20;;;;;;;9.27;7.22;;;20.60;99.90;;;;;;5053145;28;20094;-65
2021/06/10 05:15:46;;;;;;;11.55;8.05;;;20.70;99.90;;;;;;5053651;28;20036;-66
2021/06/10 05:18:11;;;;;;;12.38;7.22;;;20.70;99.90;;;;;;5071651;28;20025;-65
2021/06/10 05:20:37;;;;;;;14.57;8.00;;;20.70;99.90;;;;;;5070855;28;20056;-65
2021/06/10 05:23:03;;;;;;;10.68;7.65;;;20.60;99.90;;;;;;5053477;28;20035;-66
2021/06/10 05:25:29;;;;;;;9.63;7.45;;;20.70;99.90;;;;;;5052634;28;20024;-66
2021/06/10 05:27:55;;;;;;;14.07;7.80;;;20.70;99.90;;;;;;5049192;28;20056;-66
2021/06/10 05:30:21;;;;;;;8.95;7.35;;;20.70;99.90;;;;;;5048701;28;20039;-65
2021/06/10 05:32:46;;;;;;;13.80;7.75;;;20.70;99.90;;;;;;5070899;28;20025;-68
2021/06/10 05:35:13;;;;;;;8.68;6.85;;;20.80;99.90;;;;;;5070879;28;20032;-66
2021/06/10 05:37:39;;;;;;;13.38;8.07;;;20.80;99.90;;;;;;5070405;28;20139;-68
2021/06/10 05:40:07;;;;;;;25.25;9.23;;;20.90;99.90;;;;;;5071241;28;20516;-65
2021/06/10 05:42:34;;;;;;;15.00;8.00;;;21.10;99.90;;;;;;5070141;28;20476;-67
2021/06/10 05:45:00;;;;;;;10.63;7.72;;;21.20;99.90;;;;;;5053215;28;20056;-67
2021/06/10 05:47:26;;;;;;;10.00;7.55;;;21.20;99.90;;;;;;5051936;28;20059;-67
2021/06/10 05:49:51;;;;;;;8.05;7.25;;;21.20;99.90;;;;;;5070455;28;20027;-70
2021/06/10 05:52:18;;;;;;;9.15;7.68;;;21.00;99.90;;;;;;5051720;28;20354;-72
2021/06/10 05:54:44;;;;;;;9.55;5.70;;;21.10;99.90;;;;;;5069967;28;20036;-66
2021/06/10 05:57:10;;;;;;;8.07;6.20;;;21.20;99.90;;;;;;5069798;28;20036;-67
2021/06/10 05:59:36;;;;;;;7.40;6.70;;;21.20;99.90;;;;;;5050487;28;20565;-67
2021/06/10 06:02:02;;;;;;;8.30;7.35;;;21.10;99.90;;;;;;5069403;28;20115;-67
2021/06/10 06:04:28;;;;;;;9.05;6.95;;;21.00;99.90;;;;;;5069160;28;20025;-67
2021/06/10 06:06:53;;;;;;;8.88;7.95;;;21.10;99.90;;;;;;5069624;28;20033;-67
2021/06/10 06:09:21;;;;;;;12.32;7.03;;;21.10;99.90;;;;;;5037641;28;20025;-65
2021/06/10 06:11:50;;;;;;;8.73;7.82;;;21.20;99.90;;;;;;5049722;28;20025;-67
2021/06/10 06:14:17;;;;;;;9.95;8.70;;;21.40;99.90;;;;;;5068979;28;20100;-67
2021/06/10 06:16:44;;;;;;;14.15;8.02;;;21.30;99.90;;;;;;5068922;28;20521;-66
2021/06/10 06:19:12;;;;;;;9.13;8.18;;;21.40;99.90;;;;;;5068694;28;20031;-66
2021/06/10 06:21:39;;;;;;;12.00;8.63;;;21.30;99.90;;;;;;5067656;28;20109;-66
2021/06/10 06:24:06;;;;;;;11.10;7.13;;;21.10;99.90;;;;;;5068593;28;20036;-65
2021/06/10 06:26:32;;;;;;;10.90;7.43;;;21.20;99.90;;;;;;5049872;28;20385;-65
2021/06/10 06:29:02;;;;;;;8.82;8.02;;;21.30;99.90;;;;;;5050247;28;20299;-66
2021/06/10 06:31:29;;;;;;;14.27;8.13;;;21.60;99.90;;;;;;5049242;28;20092;-66
2021/06/10 06:33:55;;;;;;;9.85;7.93;;;21.50;99.90;;;;;;5049925;28;20062;-65
2021/06/10 06:36:20;;;;;;;18.77;8.63;;;21.50;99.90;;;;;;5049683;28;20519;-66
2021/06/10 06:38:47;;;;;;;16.02;8.02;;;21.40;99.90;;;;;;5050050;28;20028;-66
2021/06/10 06:41:13;;;;;;;10.73;8.45;;;21.40;99.90;;;;;;5049724;28;20028;-66
2021/06/10 06:43:38;;;;;;;12.35;7.53;;;21.70;99.90;;;;;;5049632;28;20025;-67
2021/06/10 06:46:06;;;;;;;10.65;7.53;;;21.90;99.90;;;;;;5068123;28;20029;-67
2021/06/10 06:48:33;;;;;;;10.50;8.25;;;22.10;99.90;;;;;;5070283;28;20032;-67
2021/06/10 06:51:00;;;;;;;9.45;7.95;;;21.90;99.90;;;;;;5065504;28;20117;-67
2021/06/10 06:53:29;;;;;;;9.13;7.30;;;21.90;99.90;;;;;;5036550;28;20029;-66
2021/06/10 06:55:58;;;;;;;12.27;8.05;;;22.10;99.90;;;;;;5037101;28;20029;-66
2021/06/10 06:58:25;;;;;;;8.52;7.63;;;22.40;99.90;;;;;;5036668;28;20159;-66
2021/06/10 07:00:51;;;;;;;10.45;8.15;;;22.20;99.90;;;;;;5036917;28;20083;-66
2021/06/10 07:03:17;;;;;;;12.00;7.68;;;22.20;99.90;;;;;;5036779;28;20446;-66
2021/06/10 07:05:42;;;;;;;11.73;6.93;;;22.40;99.90;;;;;;5037127;28;20025;-66
2021/06/10 07:08:08;;;;;;;7.97;7.13;;;22.60;99.90;;;;;;5041845;28;20489;-66
2021/06/10 07:10:34;;;;;;;13.82;7.95;;;22.70;99.90;;;;;;5044254;28;20039;-67
2021/06/10 07:13:00;;;;;;;10.95;7.72;;;22.80;99.90;;;;;;5044323;28;20067;-66
2021/06/10 07:15:26;;;;;;;11.20;8.05;;;22.70;99.90;;;;;;5062403;28;20028;-66
2021/06/10 07:17:51;;;;;;;5.15;4.72;;;22.70;99.90;;;;;;5065097;28;20029;-67
2021/06/10 07:20:18;;;;;;;4.40;4.00;;;23.10;99.90;;;;;;5065043;28;20036;-66
2021/06/10 07:22:44;;;;;;;6.40;5.55;;;23.40;99.90;;;;;;5059462;28;20462;-66
2021/06/10 07:25:10;;;;;;;6.15;5.65;;;23.70;99.90;;;;;;5035085;28;20021;-66
2021/06/10 07:27:36;;;;;;;12.57;8.48;;;24.00;99.90;;;;;;5050063;28;20043;-66
2021/06/10 07:30:04;;;;;;;8.70;7.65;;;24.00;99.90;;;;;;5056501;28;20497;-66
2021/06/10 07:32:30;;;;;;;7.93;5.85;;;23.90;99.90;;;;;;5073829;28;20024;-66
2021/06/10 07:34:56;;;;;;;8.98;7.00;;;24.00;99.90;;;;;;5056250;28;20036;-66
2021/06/10 07:37:21;;;;;;;8.20;5.82;;;24.00;99.90;;;;;;5055259;28;20565;-69
2021/06/10 07:39:47;;;;;;;10.35;6.43;;;24.20;99.90;;;;;;5049858;28;20362;-67
2021/06/10 07:42:13;;;;;;;6.20;5.60;;;24.30;99.90;;;;;;5054876;28;20024;-66
2021/06/10 07:44:39;;;;;;;8.13;6.30;;;24.50;99.90;;;;;;5056782;28;20374;-66
2021/06/10 07:47:05;;;;;;;9.90;6.72;;;24.70;99.90;;;;;;5056277;28;20032;-66
2021/06/10 07:49:33;;;;;;;7.88;6.63;;;24.80;99.90;;;;;;5055749;28;20025;-66
2021/06/10 07:51:59;;;;;;;7.68;5.55;;;24.70;99.90;;;;;;5055672;28;20076;-67
2021/06/10 07:54:25;;;;;;;10.93;6.40;;;24.90;99.90;;;;;;5055943;28;20029;-67
2021/06/10 07:56:51;;;;;;;11.68;7.28;;;25.10;99.90;;;;;;5056031;28;20039;-66
2021/06/10 07:59:23;;;;;;;20.88;7.28;;;25.20;99.90;;;;;;5055817;28;20025;-67
2021/06/10 08:01:49;;;;;;;8.65;7.85;;;25.30;99.90;;;;;;5053368;28;20036;-70
2021/06/10 08:04:15;;;;;;;8.55;7.75;;;25.50;99.80;;;;;;5052841;28;20425;-67
2021/06/10 08:06:41;;;;;;;15.60;7.13;;;25.60;99.50;;;;;;5051819;28;20108;-68
2021/06/10 08:09:06;;;;;;;14.18;7.28;;;25.80;98.90;;;;;;5070474;28;20044;-66
2021/06/10 08:11:34;;;;;;;9.23;6.30;;;25.80;99.00;;;;;;5070520;28;20036;-66
2021/06/10 08:14:00;;;;;;;14.27;8.25;;;25.80;99.10;;;;;;5071267;28;20123;-48
2021/06/10 08:16:25;;;;;;;8.70;6.22;;;25.90;98.80;;;;;;5069933;28;20447;-53
2021/06/10 08:18:51;;;;;;;9.48;8.52;;;26.00;99.20;;;;;;5071198;28;20520;-51
2021/06/10 08:21:17;;;;;;;7.82;7.13;;;25.70;97.70;;;;;;5059125;28;20544;-52
2021/06/10 08:23:44;;;;;;;7.88;7.18;;;25.50;98.70;;;;;;5043100;28;20035;-54
2021/06/10 08:26:09;;;;;;;7.68;6.85;;;25.70;99.00;;;;;;5059612;28;20021;-53
2021/06/10 08:28:36;;;;;;;8.75;7.70;;;25.80;98.90;;;;;;5054225;28;20083;-54
2021/06/10 08:31:01;;;;;;;9.07;8.27;;;25.70;97.70;;;;;;5037080;28;20020;-53
2021/06/10 08:33:27;;;;;;;8.60;7.82;;;25.90;98.20;;;;;;5057979;28;20036;-54
2021/06/10 08:35:54;;;;;;;7.72;7.03;;;26.20;98.30;;;;;;5059591;28;20117;-53
2021/06/10 08:38:20;;;;;;;9.48;8.23;;;26.20;98.30;;;;;;5041737;28;20036;-59
2021/06/10 08:40:46;;;;;;;12.18;7.22;;;26.40;98.20;;;;;;5050202;28;20040;-53
2021/06/10 08:43:12;;;;;;;11.88;7.18;;;26.50;98.20;;;;;;5032032;28;20040;-51
2021/06/10 08:45:43;;;;;;;17.02;8.93;;;26.60;98.00;;;;;;5031663;28;20031;-52
2021/06/10 08:48:08;;;;;;;7.82;7.03;;;26.80;99.90;;;;;;5048808;28;20028;-56
2021/06/10 08:50:34;;;;;;;11.65;7.85;;;26.90;98.30;;;;;;5069430;28;20140;-52
2021/06/10 08:53:01;;;;;;;11.18;7.00;;;27.00;99.10;;;;;;5070372;28;20664;-52
2021/06/10 08:55:29;;;;;;;11.18;7.35;;;27.00;98.80;;;;;;5069453;28;20020;-50
2021/06/10 08:57:55;;;;;;;8.32;7.63;;;27.20;97.70;;;;;;5070470;28;20029;-54
2021/06/10 09:00:23;;;;;;;9.27;8.00;;;27.40;97.00;;;;;;5051012;28;20175;-62
2021/06/10 09:03:00;;;;;;;9.60;7.65;;;27.20;97.00;;;;;;5050925;28;20020;-50
2021/06/10 09:05:27;;;;;;;8.32;7.47;;;27.30;96.00;;;;;;5069044;28;20073;-53
2021/06/10 09:07:58;;;;;;;10.55;8.10;;;27.20;97.00;;;;;;5069989;28;20131;-51
2021/06/10 09:10:27;;;;;;;10.02;7.15;;;27.20;96.40;;;;;;5051351;28;20431;-52
2021/06/10 09:12:58;;;;;;;9.27;7.75;;;27.30;96.60;;;;;;5069657;28;20105;-51
2021/06/10 09:15:27;;;;;;;9.07;7.22;;;27.50;95.30;;;;;;5069550;28;20029;-51
2021/06/10 09:17:55;;;;;;;10.00;7.55;;;27.40;96.10;;;;;;5069931;28;20047;-51
2021/06/10 09:20:46;;;;;;;7.45;6.68;;;27.40;96.20;;;;;;5050519;28;20109;-52
2021/06/10 09:23:26;;;;;;;;;;;27.60;95.70;;;;;;5008071;28;20030;-52
2021/06/10 09:26:04;;;;;;;9.52;7.22;;;27.70;96.60;;;;;;5007556;28;19996;-55
2021/06/10 09:28:34;;;;;;;8.48;6.75;;;27.70;96.20;;;;;;5007078;28;20057;-50
2021/06/10 09:31:01;;;;;;;8.57;7.43;;;27.90;95.60;;;;;;4990855;28;20081;-50
2021/06/10 09:33:38;;;;;;;9.00;7.18;;;28.10;95.30;;;;;;5006898;28;20048;-51
2021/06/10 09:36:04;;;;;;;9.05;6.63;;;28.20;95.20;;;;;;5007405;28;20030;-51
2021/06/10 09:38:30;;;;;;;11.50;6.80;;;28.10;95.00;;;;;;4989115;28;20030;-52
2021/06/10 09:41:07;;;;;;;7.65;6.00;;;28.10;94.40;;;;;;5006780;28;20125;-59
2021/06/10 09:43:47;;;;;;;6.88;5.32;;;28.20;93.10;;;;;;5006102;28;20034;-52
2021/06/10 09:46:13;;;;;;;10.80;6.68;;;28.30;93.70;;;;;;5006897;28;20033;-53
2021/06/10 09:48:39;;;;;;;7.45;5.90;;;28.50;93.00;;;;;;4990250;28;20303;-52
2021/06/10 09:51:05;;;;;;;10.43;5.82;;;28.50;93.30;;;;;;5006497;28;20046;-56
2021/06/10 09:53:33;;;;;;;7.05;5.88;;;28.80;93.20;;;;;;5006429;28;20034;-51
2021/06/10 09:56:07;;;;;;;6.22;5.75;;;28.80;93.90;;;;;;4990345;28;20447;-52
2021/06/10 09:58:40;;;;;;;8.00;6.18;;;28.80;92.80;;;;;;5006688;28;20030;-51
2021/06/10 10:01:17;;;;;;;6.35;5.55;;;28.80;93.80;;;;;;5059105;28;20076;-53
2021/06/10 10:03:45;;;;;;;7.82;6.35;;;28.90;92.90;;;;;;5050402;28;20021;-53
2021/06/10 10:06:35;;;;;;;7.07;5.43;;;28.80;90.80;;;;;;5051045;28;20075;-55
2021/06/10 10:09:05;;;;;;;6.70;5.43;;;28.70;91.40;;;;;;5067896;28;20135;-54
2021/06/10 10:11:33;;;;;;;6.53;5.20;;;28.80;91.90;;;;;;5068260;28;20082;-51
2021/06/10 10:14:01;;;;;;;7.50;5.88;;;29.00;91.50;;;;;;5050333;28;20032;-53
2021/06/10 10:16:32;;;;;;;12.85;7.47;;;29.00;90.50;;;;;;5049570;28;20454;-52
2021/06/10 10:18:59;;;;;;;9.35;5.53;;;28.90;91.20;;;;;;5068415;28;20078;-52
2021/06/10 10:21:27;;;;;;;6.15;5.35;;;29.00;91.60;;;;;;5049508;28;20048;-52
2021/06/10 10:24:01;;;;;;;6.65;4.97;;;28.90;91.40;;;;;;5068123;28;20067;-56
2021/06/10 10:26:30;;;;;;;6.82;5.82;;;28.70;91.30;;;;;;5067757;28;20029;-52
2021/06/10 10:28:57;;;;;;;8.23;5.40;;;28.90;90.70;;;;;;5050245;28;20089;-53
2021/06/10 10:31:25;;;;;;;5.65;5.13;;;28.90;90.00;;;;;;5067863;28;20515;-54
2021/06/10 10:33:51;;;;;;;4.88;4.43;;;28.90;89.80;;;;;;5050111;28;20024;-52
2021/06/10 10:36:31;;;;;;;5.20;4.70;;;28.90;83.50;;;;;;5068556;28;20025;-52
2021/06/10 10:39:03;;;;;;;6.43;5.20;;;28.80;84.50;;;;;;5068740;28;20386;-53
2021/06/10 10:41:30;;;;;;;5.45;4.95;;;28.80;84.90;;;;;;5049358;28;20104;-51
2021/06/10 10:44:18;;;;;;;7.00;4.63;;;28.90;83.60;;;;;;5068843;28;20059;-53
2021/06/10 10:47:08;;;;;;;7.55;5.78;;;29.10;84.00;;;;;;5050541;28;20125;-52
2021/06/10 10:49:46;;;;;;;7.05;6.35;;;29.10;82.80;;;;;;5068085;28;20021;-52
2021/06/10 10:52:21;;;;;;;10.02;5.47;;;29.20;82.50;;;;;;5026631;28;20487;-55
2021/06/10 10:54:51;;;;;;;5.65;5.15;;;29.10;83.50;;;;;;5028939;28;20075;-54
2021/06/10 10:57:36;;;;;;;11.48;5.70;;;29.20;83.90;;;;;;5028761;28;20481;-54
2021/06/10 11:00:05;;;;;;;5.93;5.43;;;29.40;83.00;;;;;;5027177;28;20190;-56
2021/06/10 11:02:30;;;;;;;6.80;5.85;;;29.50;82.90;;;;;;5026600;28;20025;-52
2021/06/10 11:05:04;;;;;;;10.10;7.45;;;29.50;84.40;;;;;;5008140;28;20030;-52
2021/06/10 11:07:33;;;;;;;6.22;5.63;;;29.30;82.50;;;;;;5006642;28;20037;-53
2021/06/10 11:10:18;;;;;;;8.38;6.35;;;29.10;85.30;;;;;;5008149;28;20026;-52
2021/06/10 11:12:50;;;;;;;7.78;6.07;;;29.00;83.90;;;;;;5026359;28;20021;-51
2021/06/10 11:15:34;;;;;;;8.80;5.78;;;28.80;85.10;;;;;;5027267;28;20025;-52
2021/06/10 11:18:06;;;;;;;8.38;5.85;;;28.60;84.40;;;;;;5028888;28;20165;-51
2021/06/10 11:20:38;;;;;;;7.25;6.65;;;28.40;86.70;;;;;;5020026;28;20046;-53
2021/06/10 11:23:30;;;;;;;18.13;6.72;;;28.40;87.10;;;;;;5007192;28;20065;-57
2021/06/10 11:25:58;;;;;;;5.80;5.25;;;28.60;85.40;;;;;;5005099;28;20065;-52
2021/06/10 11:28:29;;;;;;;7.13;6.25;;;28.90;85.80;;;;;;5006444;28;20077;-52
2021/06/10 11:31:16;;;;;;;6.97;6.30;;;29.30;84.30;;;;;;5008453;28;20065;-53
2021/06/10 11:33:42;;;;;;;6.47;5.50;;;29.50;81.80;;;;;;5007599;28;20100;-52
2021/06/10 11:36:12;;;;;;;7.22;5.65;;;29.50;81.60;;;;;;5010126;28;20125;-51
2021/06/10 11:38:49;;;;;;;8.43;5.88;;;29.90;82.10;;;;;;5010232;28;20133;-53
2021/06/10 11:41:21;;;;;;;6.18;5.57;;;30.10;81.00;;;;;;5010302;28;20498;-51
2021/06/10 11:43:54;;;;;;;7.78;5.05;;;29.80;82.90;;;;;;5010802;28;20041;-51
2021/06/10 11:46:20;;;;;;;7.63;5.47;;;29.80;83.60;;;;;;5011712;28;20030;-64
2021/06/10 11:48:51;;;;;;;6.95;5.95;;;29.80;80.80;;;;;;5010672;28;20509;-52
2021/06/10 11:51:26;;;;;;;;;;;29.90;81.60;;;;;;5026312;28;20126;-55
2021/06/10 11:53:55;;;;;;;7.43;5.60;;;30.10;81.60;;;;;;5051404;28;20002;-51
2021/06/10 11:56:25;;;;;;;6.32;5.82;;;30.30;83.10;;;;;;5035387;28;20028;-54
2021/06/10 11:58:53;;;;;;;7.82;5.85;;;30.40;82.10;;;;;;5036679;28;20018;-52
2021/06/10 12:01:19;;;;;;;5.60;5.10;;;30.60;82.80;;;;;;5049296;28;20052;-52
2021/06/10 12:03:46;;;;;;;11.80;5.90;;;30.80;76.70;;;;;;5051182;28;20055;-51
2021/06/10 12:06:13;;;;;;;6.22;5.72;;;30.80;80.60;;;;;;5050711;28;20021;-52
2021/06/10 12:08:42;;;;;;;10.98;6.30;;;30.40;83.00;;;;;;5050330;28;20140;-52
2021/06/10 12:11:11;;;;;;;10.57;7.05;;;30.10;80.50;;;;;;5047024;28;20028;-52
2021/06/10 12:13:39;;;;;;;8.27;6.78;;;29.80;78.80;;;;;;5046526;28;20040;-53
2021/06/10 12:16:07;;;;;;;11.07;6.65;;;29.40;79.40;;;;;;5048892;28;20044;-56
2021/06/10 12:18:34;;;;;;;8.32;7.50;;;29.10;81.80;;;;;;5049177;28;20048;-62
2021/06/10 12:21:12;;;;;;;5.82;5.32;;;29.10;80.70;;;;;;5048828;28;20048;-54
2021/06/10 12:23:47;;;;;;;7.03;6.32;;;29.10;82.70;;;;;;5050527;28;20032;-53
2021/06/10 12:26:24;;;;;;;6.47;5.88;;;29.30;81.60;;;;;;5049294;28;20029;-55
2021/06/10 12:28:53;;;;;;;7.20;6.50;;;29.40;81.60;;;;;;5051518;28;20075;-52
2021/06/10 12:31:26;;;;;;;6.32;5.78;;;29.40;79.30;;;;;;5031700;28;20116;-53
2021/06/10 12:33:54;;;;;;;6.68;5.93;;;29.60;80.70;;;;;;5030623;28;20031;-52
2021/06/10 12:36:20;;;;;;;10.50;6.00;;;29.90;80.20;;;;;;5032077;28;20116;-52
2021/06/10 12:39:14;;;;;;;6.95;6.13;;;30.10;80.70;;;;;;5030420;28;20032;-53
2021/06/10 12:41:41;;;;;;;7.03;5.82;;;30.20;79.30;;;;;;5034526;28;20102;-53
2021/06/10 12:44:21;;;;;;;6.47;5.88;;;30.30;80.90;;;;;;5030713;28;20382;-57
2021/06/10 12:46:55;;;;;;;6.95;6.25;;;30.40;78.90;;;;;;5046215;28;20106;-54
2021/06/10 12:49:38;;;;;;;6.60;5.63;;;30.60;76.50;;;;;;5034144;28;20461;-62
2021/06/10 12:52:15;;;;;;;5.70;5.10;;;30.50;77.70;;;;;;5061246;28;20052;-52